createdAt,value
2023-04-06T00:01:24.432Z,6.72
2023-04-06T00:03:53.386Z,10.07
2023-04-06T00:06:22.324Z,8.35
2023-04-06T00:08:51.434Z,10.13
2023-04-06T00:11:20.313Z,6.93
2023-04-06T00:13:49.194Z,11.07
2023-04-06T00:16:18.276Z,8.90
2023-04-06T00:18:47.981Z,9.70
2023-04-06T00:21:17.049Z,8.77
2023-04-06T00:23:46.361Z,10.63
2023-04-06T00:26:15.143Z,10.88
2023-04-06T00:28:47.861Z,6.82
2023-04-06T00:31:16.870Z,9.65
2023-04-06T00:33:45.692Z,6.75
2023-04-06T00:36:14.772Z,11.00
2023-04-06T00:38:43.844Z,7.90
2023-04-06T00:41:13.245Z,12.18
2023-04-06T00:43:42.288Z,7.97
2023-04-06T00:46:11.339Z,11.02
2023-04-06T00:48:42.466Z,10.05
2023-04-06T00:51:11.615Z,10.57
2023-04-06T00:53:40.552Z,9.05
2023-04-06T00:56:12.766Z,7.53
2023-04-06T00:58:54.248Z,6.20
2023-04-06T01:01:23.341Z,7.88
2023-04-06T01:03:55.089Z,8.52
2023-04-06T01:06:24.609Z,16.60
2023-04-06T01:09:03.086Z,10.57
2023-04-06T01:11:33.365Z,12.90
2023-04-06T01:14:05.227Z,10.48
2023-04-06T01:16:49.544Z,11.43
2023-04-06T01:19:22.780Z,21.02
2023-04-06T01:21:55.134Z,9.95
2023-04-06T01:24:47.151Z,10.63
2023-04-06T01:27:31.575Z,10.70
2023-04-06T01:30:20.448Z,7.88
2023-04-06T01:33:12.359Z,7.03
2023-04-06T01:35:59.461Z,9.93
2023-04-06T01:38:28.687Z,7.63
2023-04-06T01:40:57.592Z,8.73
2023-04-06T01:43:28.744Z,13.15
2023-04-06T01:46:07.403Z,28.40
2023-04-06T01:48:39.154Z,8.32
2023-04-06T01:51:18.741Z,13.05
2023-04-06T01:53:58.026Z,6.88
2023-04-06T01:56:38.727Z,6.07
2023-04-06T01:59:21.906Z,8.98
2023-04-06T02:01:51.447Z,9.65
2023-04-06T02:04:20.487Z,8.93
2023-04-06T02:06:52.150Z,9.23
2023-04-06T02:09:24.649Z,7.13
2023-04-06T02:11:53.775Z,11.40
2023-04-06T02:14:22.606Z,7.70
2023-04-06T02:16:55.381Z,10.95
2023-04-06T02:19:24.706Z,5.43
2023-04-06T02:21:53.526Z,7.13
2023-04-06T02:24:22.650Z,8.60
2023-04-06T02:26:51.629Z,10.15
2023-04-06T02:29:20.647Z,10.20
2023-04-06T02:31:50.061Z,4.53
2023-04-06T02:34:19.380Z,8.85
2023-04-06T02:36:52.077Z,5.22
2023-04-06T02:39:21.885Z,7.68
2023-04-06T02:41:51.416Z,7.78
2023-04-06T02:44:24.172Z,6.72
2023-04-06T02:46:53.295Z,7.43
2023-04-06T02:49:23.822Z,5.00
2023-04-06T02:51:56.416Z,5.57
2023-04-06T02:54:29.526Z,15.32
2023-04-06T02:56:58.875Z,9.63
2023-04-06T02:59:36.712Z,6.90
2023-04-06T03:02:31.647Z,7.40
2023-04-06T03:05:09.305Z,8.13
2023-04-06T03:07:44.500Z,8.52
2023-04-06T03:10:24.761Z,5.88
2023-04-06T03:12:54.468Z,7.22
2023-04-06T03:15:26.403Z,7.57
2023-04-06T03:18:12.214Z,5.90
2023-04-06T03:20:45.269Z,9.02
2023-04-06T03:23:16.303Z,8.55
2023-04-06T03:25:47.049Z,6.70
2023-04-06T03:28:19.460Z,7.65
2023-04-06T03:30:53.769Z,6.28
2023-04-06T03:33:46.032Z,6.45
2023-04-06T03:36:21.946Z,9.90
2023-04-06T03:38:51.163Z,10.60
2023-04-06T03:41:21.620Z,8.57
2023-04-06T03:43:58.493Z,10.07
2023-04-06T03:46:27.765Z,6.10
2023-04-06T03:48:59.641Z,10.75
2023-04-06T03:51:29.760Z,6.80
2023-04-06T03:53:58.582Z,6.38
2023-04-06T03:56:28.237Z,7.53
2023-04-06T03:58:57.206Z,6.35
2023-04-06T04:01:26.577Z,8.85
2023-04-06T04:03:55.958Z,4.80
2023-04-06T04:06:25.039Z,6.63
2023-04-06T04:08:53.968Z,6.53
2023-04-06T04:11:22.880Z,5.97
2023-04-06T04:13:57.982Z,6.57
2023-04-06T04:16:27.175Z,8.70
2023-04-06T04:18:56.221Z,4.82
2023-04-06T04:21:25.846Z,5.13
2023-04-06T04:23:55.065Z,6.43
2023-04-06T04:26:24.096Z,6.13
2023-04-06T04:28:55.885Z,10.48
2023-04-06T04:31:25.197Z,10.25
2023-04-06T04:33:59.684Z,8.60
2023-04-06T04:36:32.500Z,4.00
2023-04-06T04:39:05.255Z,6.97
2023-04-06T04:41:39.270Z,6.93
2023-04-06T04:44:11.173Z,6.50
2023-04-06T04:46:40.657Z,5.18
2023-04-06T04:49:10.573Z,7.05
2023-04-06T04:51:40.470Z,7.72
2023-04-06T04:54:22.323Z,6.70
2023-04-06T04:56:52.035Z,4.13
2023-04-06T04:59:26.753Z,7.60
2023-04-06T05:02:01.914Z,7.60
2023-04-06T05:04:40.844Z,13.15
2023-04-06T05:07:14.077Z,6.15
2023-04-06T05:09:44.096Z,16.60
2023-04-06T05:12:13.866Z,7.15
2023-04-06T05:14:52.994Z,16.58
2023-04-06T05:17:23.730Z,8.55
2023-04-06T05:19:53.174Z,18.98
2023-04-06T05:22:25.941Z,9.02
2023-04-06T05:25:05.446Z,4.82
2023-04-06T05:27:35.135Z,9.63
2023-04-06T05:30:09.989Z,9.73
2023-04-06T05:32:46.149Z,9.27
2023-04-06T05:35:16.287Z,8.20
2023-04-06T05:37:48.688Z,10.93
2023-04-06T05:40:18.426Z,6.88
2023-04-06T05:42:48.689Z,8.05
2023-04-06T05:45:20.514Z,7.47
2023-04-06T05:47:56.677Z,11.55
2023-04-06T05:50:29.898Z,8.88
2023-04-06T05:52:59.698Z,10.30
2023-04-06T05:55:34.078Z,8.65
2023-04-06T05:58:19.042Z,11.45
2023-04-06T06:00:49.113Z,8.00
2023-04-06T06:03:21.196Z,8.30
2023-04-06T06:05:54.502Z,11.07
2023-04-06T06:08:32.038Z,9.98
2023-04-06T06:11:04.279Z,7.85
2023-04-06T06:13:33.094Z,5.82
2023-04-06T06:16:06.677Z,6.55
2023-04-06T06:18:39.050Z,7.85
2023-04-06T06:21:09.641Z,6.03
2023-04-06T06:23:40.400Z,6.95
2023-04-06T06:26:09.448Z,9.35
2023-04-06T06:28:38.414Z,6.53
2023-04-06T06:31:07.041Z,4.65
2023-04-06T06:33:35.858Z,5.70
2023-04-06T06:36:05.187Z,7.20
2023-04-06T06:38:34.129Z,7.65
2023-04-06T06:41:02.908Z,7.20
2023-04-06T06:43:34.869Z,9.25
2023-04-06T06:46:08.753Z,11.20
2023-04-06T06:48:37.683Z,7.70
2023-04-06T06:51:06.509Z,8.00
2023-04-06T06:53:35.500Z,8.25
2023-04-06T06:56:04.444Z,14.50
2023-04-06T06:58:33.693Z,7.65
2023-04-06T07:01:02.865Z,17.10
2023-04-06T07:03:33.474Z,6.25
2023-04-06T07:06:02.192Z,11.82
2023-04-06T07:08:31.081Z,6.70
2023-04-06T07:11:00.189Z,7.30
2023-04-06T07:13:29.361Z,8.05
2023-04-06T07:16:00.507Z,10.30
2023-04-06T07:18:30.537Z,7.80
2023-04-06T07:21:00.685Z,8.20
2023-04-06T07:23:29.521Z,8.07
2023-04-06T07:25:58.274Z,7.10
2023-04-06T07:28:27.163Z,9.20
2023-04-06T07:30:56.885Z,12.50
2023-04-06T07:33:25.763Z,7.82
2023-04-06T07:35:54.947Z,7.25
2023-04-06T07:38:23.773Z,5.13
2023-04-06T07:40:53.385Z,9.68
2023-04-06T07:43:22.189Z,8.20
2023-04-06T07:45:51.195Z,7.20
2023-04-06T07:48:20.209Z,6.00
2023-04-06T07:50:49.043Z,9.50
2023-04-06T07:53:18.150Z,10.02
2023-04-06T07:55:48.322Z,10.52
2023-04-06T07:58:17.174Z,5.93
2023-04-06T08:00:46.115Z,6.57
2023-04-06T08:03:15.358Z,5.97
2023-04-06T08:05:44.652Z,7.40
2023-04-06T08:08:16.048Z,8.82
2023-04-06T08:10:45.008Z,8.80
2023-04-06T08:13:13.886Z,8.52
2023-04-06T08:15:42.605Z,10.13
2023-04-06T08:18:11.972Z,6.70
2023-04-06T08:20:42.079Z,9.05
2023-04-06T08:23:11.205Z,9.00
2023-04-06T08:25:40.140Z,6.65
2023-04-06T08:28:10.463Z,9.13
2023-04-06T08:30:42.286Z,8.20
2023-04-06T08:33:11.893Z,8.68
2023-04-06T08:35:40.823Z,7.30
2023-04-06T08:38:09.813Z,13.50
2023-04-06T08:40:45.047Z,10.48
2023-04-06T08:43:16.142Z,7.57
2023-04-06T08:45:45.072Z,5.10
2023-04-06T08:48:14.089Z,6.38
2023-04-06T08:50:44.117Z,5.38
2023-04-06T08:53:14.167Z,6.28
2023-04-06T08:55:45.584Z,7.88
2023-04-06T08:58:24.115Z,8.88
2023-04-06T09:01:01.382Z,10.43
2023-04-06T09:03:33.395Z,10.30
2023-04-06T09:06:02.739Z,8.15
2023-04-06T09:08:31.663Z,8.80
2023-04-06T09:11:00.590Z,4.65
2023-04-06T09:13:29.662Z,6.75
2023-04-06T09:16:03.082Z,5.95
2023-04-06T09:18:33.669Z,9.10
2023-04-06T09:21:07.518Z,9.00
2023-04-06T09:23:36.876Z,6.78
2023-04-06T09:26:32.020Z,5.95
2023-04-06T09:29:02.943Z,8.07
2023-04-06T09:31:34.939Z,6.90
2023-04-06T09:34:04.208Z,4.47
2023-04-06T09:36:37.453Z,5.07
2023-04-06T09:39:06.979Z,5.97
2023-04-06T09:41:37.953Z,5.22
2023-04-06T09:44:12.109Z,5.55
2023-04-06T09:46:58.981Z,6.65
2023-04-06T09:49:35.392Z,3.72
2023-04-06T09:52:06.404Z,3.40
2023-04-06T09:54:37.575Z,4.35
2023-04-06T09:57:27.845Z,4.15
2023-04-06T10:00:13.148Z,5.13
2023-04-06T10:03:12.672Z,5.03
2023-04-06T10:06:00.153Z,4.63
2023-04-06T10:08:32.752Z,2.90
2023-04-06T10:11:02.566Z,3.15
2023-04-06T10:13:31.529Z,4.90
2023-04-06T10:16:03.145Z,3.92
2023-04-06T10:18:32.570Z,5.22
2023-04-06T10:21:10.998Z,4.95
2023-04-06T10:23:49.792Z,5.07
2023-04-06T10:26:22.552Z,6.78
2023-04-06T10:28:54.087Z,3.38
2023-04-06T10:31:30.424Z,6.97
2023-04-06T10:34:02.646Z,7.45
2023-04-06T10:36:36.195Z,5.22
2023-04-06T10:39:07.485Z,13.13
2023-04-06T10:41:48.139Z,5.35
2023-04-06T10:44:23.483Z,6.75
2023-04-06T10:47:03.296Z,5.90
2023-04-06T10:49:32.730Z,17.10
2023-04-06T10:52:01.639Z,6.75
2023-04-06T10:54:31.223Z,6.20
2023-04-06T10:57:02.785Z,6.10
2023-04-06T10:59:32.180Z,23.33
2023-04-06T11:02:01.128Z,10.32
2023-04-06T11:04:30.534Z,7.45
2023-04-06T11:07:00.036Z,5.38
2023-04-06T11:09:30.532Z,8.55
2023-04-06T11:11:59.951Z,25.50
2023-04-06T11:14:29.306Z,6.22
2023-04-06T11:16:58.312Z,6.13
2023-04-06T11:19:27.996Z,6.78
2023-04-06T11:21:59.827Z,19.35
2023-04-06T11:24:28.866Z,13.23
2023-04-06T11:27:02.855Z,10.40
2023-04-06T11:29:34.732Z,5.15
2023-04-06T11:32:06.310Z,7.60
2023-04-06T11:34:41.331Z,9.15
2023-04-06T11:37:12.301Z,9.55
2023-04-06T11:39:43.110Z,8.98
2023-04-06T11:42:12.054Z,12.57
2023-04-06T11:44:52.831Z,9.93
2023-04-06T11:47:23.869Z,6.43
2023-04-06T11:49:52.869Z,5.63
2023-04-06T11:52:26.751Z,10.50
2023-04-06T11:54:58.695Z,13.75
2023-04-06T11:57:27.300Z,11.75
2023-04-06T11:59:58.122Z,9.45
2023-04-06T12:02:27.056Z,8.63
2023-04-06T12:04:55.967Z,9.50
2023-04-06T12:07:24.873Z,10.27
2023-04-06T12:09:53.749Z,7.90
2023-04-06T12:12:23.128Z,9.55
2023-04-06T12:14:51.977Z,7.07
2023-04-06T12:17:22.790Z,12.73
2023-04-06T12:19:51.949Z,9.93
2023-04-06T12:22:20.989Z,7.72
2023-04-06T12:24:49.989Z,12.20
2023-04-06T12:27:18.817Z,9.40
2023-04-06T12:29:47.794Z,10.70
2023-04-06T12:32:17.332Z,22.77
2023-04-06T12:34:46.376Z,9.95
2023-04-06T12:37:15.217Z,7.75
2023-04-06T12:39:46.486Z,54.90
2023-04-06T12:42:15.835Z,10.13
2023-04-06T12:44:45.225Z,29.45
2023-04-06T12:47:14.782Z,6.20
2023-04-06T12:49:44.712Z,13.50
2023-04-06T12:52:13.722Z,27.42
2023-04-06T12:54:44.379Z,17.15
2023-04-06T12:57:13.687Z,9.63
2023-04-06T12:59:48.174Z,25.75
2023-04-06T13:02:17.730Z,38.65
2023-04-06T13:04:46.587Z,17.40
2023-04-06T13:07:16.034Z,20.83
2023-04-06T13:09:44.992Z,10.13
2023-04-06T13:12:13.915Z,32.33
2023-04-06T13:14:42.947Z,63.97
2023-04-06T13:17:12.739Z,59.47
2023-04-06T13:19:42.676Z,97.50
2023-04-06T13:22:11.878Z,101.85
2023-04-06T13:24:40.777Z,23.10
2023-04-06T13:27:09.681Z,95.65
2023-04-06T13:29:39.312Z,25.80
2023-04-06T13:32:12.265Z,28.45
2023-04-06T13:34:42.392Z,47.78
2023-04-06T13:37:11.923Z,14.73
2023-04-06T13:39:43.819Z,12.70
2023-04-06T13:42:12.674Z,9.02
2023-04-06T13:44:41.788Z,12.52
2023-04-06T13:47:11.277Z,45.17
2023-04-06T13:49:40.016Z,50.03
2023-04-06T13:52:11.727Z,147.15
2023-04-06T13:54:41.366Z,64.60
2023-04-06T13:57:10.679Z,27.58
2023-04-06T13:59:40.605Z,9.68
2023-04-06T14:02:12.645Z,236.02
2023-04-06T14:04:41.959Z,80.53
2023-04-06T14:07:10.790Z,59.25
2023-04-06T14:09:39.929Z,86.45
2023-04-06T14:12:09.684Z,59.53
2023-04-06T14:14:39.020Z,47.28
2023-04-06T14:17:08.131Z,71.88
2023-04-06T14:19:37.888Z,18.38
2023-04-06T14:22:06.788Z,11.13
2023-04-06T14:24:39.360Z,56.38
2023-04-06T14:27:08.911Z,93.15
2023-04-06T14:29:39.072Z,13.82
2023-04-06T14:32:08.564Z,131.98
2023-04-06T14:34:40.229Z,27.90
2023-04-06T14:37:09.434Z,41.50
2023-04-06T14:39:39.485Z,40.40
2023-04-06T14:42:08.495Z,68.70
2023-04-06T14:44:38.631Z,16.33
2023-04-06T14:47:07.730Z,18.25
2023-04-06T14:49:37.202Z,12.23
2023-04-06T14:52:06.614Z,11.60
2023-04-06T14:54:35.494Z,10.27
2023-04-06T14:57:05.432Z,130.68
2023-04-06T14:59:39.939Z,50.40
2023-04-06T15:02:09.502Z,141.50
2023-04-06T15:04:38.668Z,36.50
2023-04-06T15:07:07.640Z,17.65
2023-04-06T15:09:37.821Z,11.82
2023-04-06T15:12:07.571Z,13.77
2023-04-06T15:14:36.546Z,10.88
2023-04-06T15:17:05.448Z,14.27
2023-04-06T15:19:34.146Z,105.25
2023-04-06T15:22:02.912Z,125.03
2023-04-06T15:24:31.960Z,185.38
2023-04-06T15:27:00.747Z,331.15
2023-04-06T15:29:29.603Z,390.30
2023-04-06T15:31:58.380Z,476.52
2023-04-06T15:34:27.421Z,541.88
2023-04-06T15:36:56.591Z,583.58
2023-04-06T15:39:26.164Z,563.88
2023-04-06T15:41:55.288Z,526.50
2023-04-06T15:44:24.350Z,433.80
2023-04-06T15:46:54.243Z,282.85
2023-04-06T15:49:23.067Z,277.25
2023-04-06T15:51:52.989Z,148.07
2023-04-06T15:54:22.132Z,206.10
2023-04-06T15:56:51.758Z,146.85
2023-04-06T15:59:21.413Z,188.85
2023-04-06T16:01:50.458Z,200.15
2023-04-06T16:04:19.311Z,329.85
2023-04-06T16:06:48.344Z,297.17
2023-04-06T16:09:17.166Z,314.38
2023-04-06T16:11:46.205Z,304.85
2023-04-06T16:14:14.997Z,300.40
2023-04-06T16:16:44.507Z,298.45
2023-04-06T16:19:16.066Z,328.65
2023-04-06T16:21:44.847Z,381.08
2023-04-06T16:24:13.524Z,350.45
2023-04-06T16:26:42.674Z,426.70
2023-04-06T16:29:11.873Z,496.52
2023-04-06T16:31:40.852Z,438.83
2023-04-06T16:34:09.565Z,427.73
2023-04-06T16:36:41.630Z,386.50
2023-04-06T16:39:10.967Z,398.95
2023-04-06T16:41:40.499Z,362.73
2023-04-06T16:44:09.959Z,409.88
2023-04-06T16:46:40.297Z,897.67
2023-04-06T16:49:09.781Z,637.78
2023-04-06T16:51:38.867Z,692.72
2023-04-06T16:54:07.640Z,630.67
2023-04-06T16:56:36.503Z,622.85
2023-04-06T16:59:09.540Z,663.83
2023-04-06T17:01:39.108Z,676.75
2023-04-06T17:04:08.582Z,775.95
2023-04-06T17:06:37.672Z,719.10
2023-04-06T17:09:07.036Z,506.88
2023-04-06T17:11:46.198Z,436.98
2023-04-06T17:14:15.824Z,448.95
2023-04-06T17:16:44.963Z,435.27
2023-04-06T17:19:14.036Z,371.85
2023-04-06T17:21:43.205Z,366.85
2023-04-06T17:24:12.780Z,395.48
2023-04-06T17:26:42.374Z,343.17
2023-04-06T17:29:11.672Z,320.48
2023-04-06T17:31:40.505Z,300.35
2023-04-06T17:34:11.025Z,296.95
2023-04-06T17:36:39.881Z,347.63
2023-04-06T17:39:09.374Z,267.45
2023-04-06T17:41:39.192Z,388.02
2023-04-06T17:44:08.404Z,179.45
2023-04-06T17:46:37.434Z,106.93
2023-04-06T17:49:09.790Z,50.20
2023-04-06T17:51:39.180Z,70.10
2023-04-06T17:54:11.476Z,39.22
2023-04-06T17:56:40.472Z,39.53
2023-04-06T17:59:12.264Z,35.45
2023-04-06T18:01:42.082Z,28.33
2023-04-06T18:04:11.313Z,38.25
2023-04-06T18:06:41.422Z,28.98
2023-04-06T18:09:10.849Z,28.08
2023-04-06T18:11:39.679Z,21.95
2023-04-06T18:14:11.890Z,22.73
2023-04-06T18:16:44.114Z,18.15
2023-04-06T18:19:13.947Z,13.25
2023-04-06T18:21:43.550Z,8.07
2023-04-06T18:24:18.741Z,10.52
2023-04-06T18:26:53.045Z,19.20
2023-04-06T18:29:22.010Z,15.45
2023-04-06T18:31:55.777Z,10.70
2023-04-06T18:34:24.735Z,9.23
2023-04-06T18:36:54.103Z,6.95
2023-04-06T18:39:22.862Z,8.90
2023-04-06T18:41:51.893Z,7.10
2023-04-06T18:44:21.313Z,7.10
2023-04-06T18:46:51.043Z,8.50
2023-04-06T18:49:21.433Z,15.27
2023-04-06T18:51:50.316Z,8.82
2023-04-06T18:54:18.952Z,5.93
2023-04-06T18:56:49.903Z,9.13
2023-04-06T18:59:21.165Z,14.60
2023-04-06T19:01:55.358Z,17.05
2023-04-06T19:04:24.497Z,6.57
2023-04-06T19:06:53.639Z,13.43
2023-04-06T19:09:22.975Z,6.93
2023-04-06T19:11:51.765Z,5.40
2023-04-06T19:14:20.571Z,11.80
2023-04-06T19:16:55.795Z,13.88
2023-04-06T19:19:27.694Z,5.97
2023-04-06T19:21:58.195Z,9.50
2023-04-06T19:24:27.596Z,11.50
2023-04-06T19:26:57.917Z,6.22
2023-04-06T19:29:26.933Z,9.88
2023-04-06T19:31:56.727Z,9.27
2023-04-06T19:34:25.636Z,6.60
2023-04-06T19:36:54.715Z,7.60
2023-04-06T19:39:23.597Z,7.93
2023-04-06T19:41:52.470Z,5.07
2023-04-06T19:44:21.951Z,5.82
2023-04-06T19:46:51.279Z,5.30
2023-04-06T19:49:20.315Z,6.93
2023-04-06T19:51:50.115Z,10.48
2023-04-06T19:54:19.223Z,7.15
2023-04-06T19:56:48.985Z,6.97
2023-04-06T19:59:18.615Z,20.05
2023-04-06T20:01:47.686Z,7.68
2023-04-06T20:04:16.581Z,5.47
2023-04-06T20:06:45.694Z,6.65
2023-04-06T20:09:16.434Z,6.35
2023-04-06T20:11:45.579Z,7.60
2023-04-06T20:14:14.774Z,5.05
2023-04-06T20:16:43.667Z,5.43
2023-04-06T20:19:12.562Z,5.55
2023-04-06T20:21:41.758Z,5.18
2023-04-06T20:24:12.334Z,4.68
2023-04-06T20:26:41.167Z,5.10
2023-04-06T20:29:09.889Z,4.32
2023-04-06T20:31:38.706Z,4.43
2023-04-06T20:34:07.603Z,6.30
2023-04-06T20:36:36.609Z,4.35
2023-04-06T20:39:05.607Z,3.92
2023-04-06T20:41:34.460Z,3.88
2023-04-06T20:44:03.408Z,4.38
2023-04-06T20:46:32.171Z,4.32
2023-04-06T20:49:01.265Z,4.47
2023-04-06T20:51:30.332Z,3.65
2023-04-06T20:53:59.418Z,3.70
2023-04-06T20:56:30.797Z,4.88
2023-04-06T21:00:15.491Z,4.25
2023-04-06T21:02:47.234Z,3.42
2023-04-06T21:05:18.820Z,8.20
2023-04-06T21:07:47.481Z,5.85
2023-04-06T21:10:16.359Z,6.93
2023-04-06T21:12:45.214Z,3.78
2023-04-06T21:15:14.059Z,4.88
2023-04-06T21:17:42.885Z,4.78
2023-04-06T21:20:12.097Z,2.92
2023-04-06T21:22:40.982Z,6.22
2023-04-06T21:25:10.242Z,7.15
2023-04-06T21:27:39.100Z,5.20
2023-04-06T21:30:08.524Z,3.75
2023-04-06T21:32:37.925Z,9.13
2023-04-06T21:35:07.306Z,1.90
2023-04-06T21:37:36.308Z,5.32
2023-04-06T21:40:06.559Z,3.03
2023-04-06T21:42:35.500Z,3.13
2023-04-06T21:45:04.407Z,3.38
2023-04-06T21:47:36.733Z,3.65
2023-04-06T21:50:06.579Z,2.75
2023-04-06T21:52:35.653Z,8.30
2023-04-06T21:55:06.147Z,3.72
2023-04-06T21:57:35.024Z,4.05
2023-04-06T22:00:10.554Z,3.90
2023-04-06T22:02:46.966Z,1.85
2023-04-06T22:05:16.433Z,3.92
2023-04-06T22:07:47.327Z,2.78
2023-04-06T22:10:16.421Z,2.15
2023-04-06T22:12:46.191Z,4.03
2023-04-06T22:15:15.274Z,2.47
2023-04-06T22:20:10.990Z,4.80
2023-04-06T22:22:40.593Z,4.35
2023-04-06T22:25:10.046Z,2.40
2023-04-06T22:27:38.739Z,15.13
2023-04-06T22:30:09.227Z,4.20
2023-04-06T22:32:38.421Z,3.03
2023-04-06T22:35:08.665Z,2.35
2023-04-06T22:37:37.704Z,2.95
2023-04-06T22:40:07.286Z,1.70
2023-04-06T22:42:35.929Z,2.30
2023-04-06T22:45:05.437Z,7.72
2023-04-06T22:47:34.452Z,5.55
2023-04-06T22:50:03.643Z,4.03
2023-04-06T22:52:32.590Z,3.80
2023-04-06T22:55:02.386Z,4.28
2023-04-06T22:57:31.391Z,5.15
2023-04-06T23:00:00.206Z,3.17
2023-04-06T23:02:29.159Z,5.32
2023-04-06T23:04:58.207Z,2.75
2023-04-06T23:07:26.990Z,2.13
2023-04-06T23:09:55.846Z,9.13
2023-04-06T23:12:24.790Z,3.67
2023-04-06T23:14:53.370Z,2.40
2023-04-06T23:17:22.650Z,6.95
2023-04-06T23:19:52.237Z,5.60
2023-04-06T23:22:21.246Z,2.47
2023-04-06T23:24:51.056Z,5.20
2023-04-06T23:27:20.052Z,4.32
2023-04-06T23:29:48.928Z,1.77
2023-04-06T23:32:17.756Z,4.22
2023-04-06T23:34:49.409Z,1.88
2023-04-06T23:37:18.752Z,6.22
2023-04-06T23:39:49.150Z,5.80
2023-04-06T23:42:21.213Z,2.50
2023-04-06T23:44:58.227Z,2.33
2023-04-06T23:47:28.000Z,8.70
2023-04-06T23:49:57.145Z,2.00
2023-04-06T23:52:26.423Z,8.10
2023-04-06T23:54:55.248Z,2.92
2023-04-06T23:57:27.452Z,4.60
2023-04-06T23:59:59.549Z,3.78
